Accueil
METAR-TAF:

METAR-TAF

Aéroports :

Base aérienne 279 Châteaudun

Châteaudun, France

latitude: 48-03N, longitude: 001-23E, altitude: 134 m

METAR: absent

Heure: 18:26 (16:26 UTC)

Prévision

Le bulletin a été fait il y a 37 heures et 23 minutes, à 03:03 UTC
Prévision valable du 18 à 03 UTC au 19 à 03 UTC
Vent 3 kt de est/sud-est
Visibilité 10 km ou plus
pas de nuages en-dessous de 1500 mètres et pas de cumulonimbus.
Temporairement
du 18 à 03 UTC au 18 à 07 UTC
Visibilité: 0300 m
brouillard
Temporairement
du 18 à 04 UTC au 18 à 08 UTC
Visibilité: 3000 m
brume

TAF: LFOC 180303Z 1803/1903 11003KT CAVOK TEMPO 1803/1807 0300 FG VV/// TEMPO 1804/1808 3000 BR

Observations et prévisions météorologiques de plus de 4000 aéroports (messages METAR et TAF).

Les stations disponibles sont représentées par des disques jaunes et rouges sur la carte.

Passer la souris dessus pour voir le nom de la station.

Cliquer dessus pour voir les observations et prévisions météorologiques.

Pour changer de carte: cliquez sur les boutons verts avec une croix noire pour zoomer, sur le bouton vert avec un tiret pour effectuer un zoom arrière, ou sur les flèches vertes pour les cartes adjacentes.


METAR-TAF: